Time;durP1;ratioP1;P1;durP2;ratioP2;P2;SDS_P1;SDS_P2;PMS_P1;PMS_P2;Temp;Humidity;BMP_temperature;BMP_pressure;BME280_temperature;BME280_humidity;BME280_pressure;Samples;Min_cycle;Max_cycle;Signal;HPM_P1;HPM_P2
2021/01/15 00:01:44;;;;;;;41.30;20.10;;;;;;;-1.59;68.26;99733.94;121726;1140;104332;-74
2021/01/15 00:04:13;;;;;;;36.97;18.27;;;;;;;-1.57;68.72;99734.01;121684;1141;104483;-75
2021/01/15 00:06:42;;;;;;;39.37;19.23;;;;;;;-1.57;67.72;99734.01;121693;1141;104348;-77
2021/01/15 00:09:11;;;;;;;39.83;19.50;;;;;;;-1.56;68.85;99739.27;121719;1140;104380;-74
2021/01/15 00:11:40;;;;;;;37.80;18.27;;;;;;;-1.53;68.07;99744.63;121735;1140;103209;-75
2021/01/15 00:14:10;;;;;;;41.77;18.50;;;;;;;-1.51;68.72;99747.31;121751;1141;104335;-75
2021/01/15 00:16:39;;;;;;;37.20;19.77;;;;;;;-1.49;68.38;99750.91;121695;1141;104344;-76
2021/01/15 00:19:07;;;;;;;40.00;19.97;;;;;;;-1.48;68.89;99753.59;121702;1140;104509;-75
2021/01/15 00:21:47;;;;;;;38.33;19.27;;;;;;;-1.46;68.39;99752.02;121756;1141;104431;-75
2021/01/15 00:24:20;;;;;;;37.33;19.43;;;;;;;-1.47;67.82;99747.64;121678;1140;104465;-76
2021/01/15 00:26:50;;;;;;;38.33;19.13;;;;;;;-1.46;68.44;99753.70;121697;1141;104435;-75
2021/01/15 00:29:20;;;;;;;40.75;19.35;;;;;;;-1.46;68.15;99754.59;121715;1141;104572;-76
2021/01/15 00:31:57;;;;;;;40.87;19.37;;;;;;;-1.47;68.54;99751.91;121649;1140;104459;-75
2021/01/15 00:34:37;;;;;;;39.00;18.97;;;;;;;-1.51;68.72;99744.73;121669;1140;104375;-73
2021/01/15 00:37:06;;;;;;;40.70;20.17;;;;;;;-1.52;68.99;99745.55;121622;1141;104463;-74
2021/01/15 00:39:35;;;;;;;36.23;17.73;;;;;;;-1.53;68.10;99748.89;121713;1141;104478;-74
2021/01/15 00:42:09;;;;;;;39.40;20.50;;;;;;;-1.55;67.97;99748.78;121715;1141;104330;-74
2021/01/15 00:44:38;;;;;;;37.47;18.57;;;;;;;-1.58;68.61;99756.28;121714;1141;104404;-74
2021/01/15 00:47:08;;;;;;;38.23;20.40;;;;;;;-1.63;68.70;99752.49;121675;1140;104345;-75
2021/01/15 00:49:39;;;;;;;37.73;18.30;;;;;;;-1.66;68.72;99759.99;121707;1141;104346;-74
2021/01/15 00:52:12;;;;;;;42.43;18.53;;;;;;;-1.71;68.98;99761.34;121705;1141;104382;-74
2021/01/15 00:54:41;;;;;;;38.23;18.13;;;;;;;-1.76;68.27;99760.09;121746;1141;104837;-74
2021/01/15 00:57:10;;;;;;;37.20;18.37;;;;;;;-1.81;68.65;99759.77;121704;1141;104381;-75
2021/01/15 00:59:39;;;;;;;37.77;18.07;;;;;;;-1.85;68.17;99757.77;121760;1141;104339;-75
2021/01/15 01:02:16;;;;;;;41.03;18.27;;;;;;;-1.88;68.27;99761.00;121771;1141;104336;-75
2021/01/15 01:04:46;;;;;;;36.40;18.30;;;;;;;-1.92;68.56;99765.81;121705;1140;104383;-75
2021/01/15 01:07:16;;;;;;;40.37;19.80;;;;;;;-1.96;68.26;99774.98;121697;1141;104479;-75
2021/01/15 01:09:45;;;;;;;37.03;18.87;;;;;;;-1.95;67.96;99773.30;121635;1140;104406;-74
2021/01/15 01:12:14;;;;;;;37.70;18.87;;;;;;;-1.97;69.06;99772.30;121728;1141;104463;-75
2021/01/15 01:14:43;;;;;;;40.90;19.13;;;;;;;-1.98;69.42;99784.23;121738;1141;104342;-74
2021/01/15 01:17:11;;;;;;;36.20;18.37;;;;;;;-1.99;68.62;99788.50;121777;1141;104342;-75
2021/01/15 01:19:40;;;;;;;36.47;19.13;;;;;;;-1.97;68.34;99783.47;121774;1141;103262;-76
2021/01/15 01:22:09;;;;;;;37.63;18.67;;;;;;;-1.97;69.54;99783.47;121660;1141;104336;-75
2021/01/15 01:24:38;;;;;;;39.13;19.20;;;;;;;-1.94;68.54;99781.13;121730;1140;104386;-75
2021/01/15 01:27:07;;;;;;;36.57;17.60;;;;;;;-1.94;68.55;99781.13;121711;1141;104505;-75
2021/01/15 01:29:36;;;;;;;40.30;19.77;;;;;;;-1.95;69.63;99781.02;121727;1141;104885;-75
2021/01/15 01:32:06;;;;;;;38.10;17.65;;;;;;;-1.97;68.53;99787.73;121705;1141;104342;-75
2021/01/15 01:34:35;;;;;;;38.17;18.47;;;;;;;-2.00;69.05;99799.55;121639;1140;104954;-77
2021/01/15 01:37:04;;;;;;;38.67;18.60;;;;;;;-2.00;68.65;99796.98;121710;1141;104460;-75
2021/01/15 01:39:33;;;;;;;35.73;17.80;;;;;;;-2.00;69.65;99789.27;121713;1141;104533;-77
2021/01/15 01:42:02;;;;;;;35.30;18.13;;;;;;;-1.99;68.93;99798.78;121707;1141;105036;-75
2021/01/15 01:44:31;;;;;;;37.70;19.23;;;;;;;-1.97;69.57;99806.61;121553;1141;104352;-76
2021/01/15 01:47:00;;;;;;;39.13;18.40;;;;;;;-1.98;68.67;99802.23;121531;1140;104383;-77
2021/01/15 01:49:29;;;;;;;34.07;16.57;;;;;;;-1.99;68.46;99800.47;121508;1141;104346;-77
2021/01/15 01:52:00;;;;;;;33.27;15.47;;;;;;;-2.03;68.85;99806.16;122149;1140;102652;-76
2021/01/15 01:54:30;;;;;;;31.67;13.93;;;;;;;-2.05;68.63;99815.44;121551;1141;104356;-76
2021/01/15 01:56:59;;;;;;;33.37;14.77;;;;;;;-2.05;68.78;99810.30;121763;1140;104495;-75
2021/01/15 01:59:29;;;;;;;32.53;15.27;;;;;;;-2.06;69.57;99809.38;121734;1141;104345;-75
2021/01/15 02:01:58;;;;;;;33.00;15.77;;;;;;;-2.05;69.28;99815.44;121715;1141;104505;-73
2021/01/15 02:04:27;;;;;;;30.60;15.00;;;;;;;-2.06;69.61;99817.09;121698;1140;104407;-74
2021/01/15 02:06:57;;;;;;;34.87;17.70;;;;;;;-2.06;68.94;99821.35;121727;1141;104372;-74
2021/01/15 02:09:33;;;;;;;36.07;17.23;;;;;;;-2.05;69.80;99821.47;121716;1141;104338;-75
2021/01/15 02:12:16;;;;;;;39.87;18.37;;;;;;;-2.02;68.99;99823.38;121720;1141;104831;-75
2021/01/15 02:15:00;;;;;;;34.87;16.60;;;;;;;-2.00;69.71;99824.38;121715;1141;104377;-75
2021/01/15 02:17:35;;;;;;;37.45;18.12;;;;;;;-1.99;69.77;99826.19;121720;1141;104435;-76
2021/01/15 02:20:21;;;;;;;34.23;17.43;;;;;;;-1.94;68.80;99823.95;121670;1140;104460;-75
2021/01/15 02:23:07;;;;;;;38.13;18.50;;;;;;;-1.86;69.53;99823.72;121615;1140;104492;-75
2021/01/15 02:26:05;;;;;;;37.90;17.00;;;;;;;-1.76;70.20;99827.89;121635;1140;104344;-75
2021/01/15 02:29:00;;;;;;;34.13;16.23;;;;;;;-1.70;69.45;99830.00;121675;1141;104361;-74
2021/01/15 02:31:42;;;;;;;;;;;;;;;-1.63;70.22;99825.41;121745;1141;104354;-75
2021/01/15 02:34:25;;;;;;;36.40;16.93;;;;;;;-1.53;69.53;99823.52;121732;1141;104345;-75
2021/01/15 02:37:01;;;;;;;33.60;17.40;;;;;;;-1.48;70.29;99832.45;121719;1141;104621;-74
2021/01/15 02:39:42;;;;;;;36.27;17.67;;;;;;;-1.42;70.25;99824.30;121676;1140;104392;-74
2021/01/15 02:42:12;;;;;;;34.70;17.60;;;;;;;-1.40;69.70;99820.14;121722;1141;104362;-73
2021/01/15 02:44:47;;;;;;;38.17;18.37;;;;;;;-1.38;69.72;99834.03;121714;1140;104342;-74
2021/01/15 02:47:23;;;;;;;33.47;17.23;;;;;;;-1.39;69.84;99832.23;121731;1141;104855;-74
2021/01/15 02:49:54;;;;;;;34.57;17.03;;;;;;;-1.39;69.94;99845.10;121747;1140;104338;-74
2021/01/15 02:52:23;;;;;;;32.97;16.47;;;;;;;-1.39;69.50;99842.53;121684;1141;104430;-74
2021/01/15 02:54:54;;;;;;;36.17;16.70;;;;;;;-1.41;70.23;99841.53;121700;1141;104478;-74
2021/01/15 02:57:23;;;;;;;37.23;17.77;;;;;;;-1.43;69.95;99840.50;121715;1141;104351;-74
2021/01/15 02:59:52;;;;;;;37.67;18.50;;;;;;;-1.45;69.54;99843.89;121751;1140;104341;-74
2021/01/15 03:02:29;;;;;;;38.73;18.07;;;;;;;-1.45;69.95;99838.73;121664;1140;104345;-75
2021/01/15 03:05:05;;;;;;;33.90;16.90;;;;;;;-1.45;69.17;99846.45;121693;1141;103206;-74
2021/01/15 03:07:34;;;;;;;37.77;19.03;;;;;;;-1.45;70.40;99842.97;121648;1140;104464;-75
2021/01/15 03:10:06;;;;;;;31.50;15.47;;;;;;;-1.48;69.63;99842.75;121751;1139;104445;-75
2021/01/15 03:12:37;;;;;;;38.53;19.87;;;;;;;-1.48;69.99;99841.09;121799;1140;104527;-75
2021/01/15 03:15:10;;;;;;;32.30;16.13;;;;;;;-1.47;70.34;99840.28;121738;1141;104651;-75
2021/01/15 03:17:43;;;;;;;35.10;18.47;;;;;;;-1.46;69.49;99844.66;121632;1140;104847;-74
2021/01/15 03:20:13;;;;;;;34.40;16.95;;;;;;;-1.45;69.85;99841.31;121752;1140;104339;-74
2021/01/15 03:22:45;;;;;;;37.33;17.53;;;;;;;-1.46;70.08;99842.08;121713;1141;104384;-75
2021/01/15 03:25:15;;;;;;;35.40;17.90;;;;;;;-1.44;69.58;99849.92;121734;1140;104342;-75
2021/01/15 03:27:48;;;;;;;36.43;18.23;;;;;;;-1.43;70.48;99848.22;121632;1141;104375;-75
2021/01/15 03:30:20;;;;;;;36.53;17.00;;;;;;;-1.39;70.67;99861.42;121682;1141;104442;-75
2021/01/15 03:32:52;;;;;;;33.63;16.23;;;;;;;-1.38;70.59;99852.94;121743;1141;104339;-75
2021/01/15 03:35:25;;;;;;;35.80;17.77;;;;;;;-1.36;70.45;99853.93;121754;1141;104338;-75
2021/01/15 03:37:59;;;;;;;35.90;16.47;;;;;;;-1.34;70.63;99854.96;121744;1140;104432;-76
2021/01/15 03:40:32;;;;;;;38.03;17.70;;;;;;;-1.31;70.75;99846.55;121734;1140;104792;-74
2021/01/15 03:43:01;;;;;;;32.27;16.17;;;;;;;-1.27;70.18;99845.98;121716;1141;104457;-74
2021/01/15 03:45:30;;;;;;;38.10;17.83;;;;;;;-1.23;70.27;99850.59;121716;1141;104358;-74
2021/01/15 03:47:59;;;;;;;40.03;18.03;;;;;;;-1.22;70.66;99852.36;121780;1140;104452;-76
2021/01/15 03:50:28;;;;;;;34.50;17.33;;;;;;;-1.19;70.63;99859.41;121776;1140;104930;-75
2021/01/15 03:52:57;;;;;;;38.53;19.57;;;;;;;-1.18;70.95;99858.64;121721;1140;104369;-74
2021/01/15 03:55:26;;;;;;;35.17;17.20;;;;;;;-1.20;70.05;99853.38;121704;1141;104401;-74
2021/01/15 03:57:55;;;;;;;34.00;16.05;;;;;;;-1.21;70.93;99858.42;121710;1140;104528;-74
2021/01/15 04:00:24;;;;;;;34.93;17.17;;;;;;;-1.22;70.34;99867.80;121745;1140;104455;-74
2021/01/15 04:02:53;;;;;;;35.03;16.53;;;;;;;-1.21;70.55;99867.03;121730;1140;104453;-74
2021/01/15 04:05:22;;;;;;;38.35;17.95;;;;;;;-1.19;70.50;99860.30;121728;1141;104470;-74
2021/01/15 04:07:51;;;;;;;36.97;18.20;;;;;;;-1.18;70.59;99863.79;121717;1141;104432;-74
2021/01/15 04:10:21;;;;;;;33.37;16.13;;;;;;;-1.21;71.07;99861.00;121718;1141;104436;-74
2021/01/15 04:12:50;;;;;;;34.00;15.40;;;;;;;-1.22;70.72;99862.66;121716;1141;104371;-74
2021/01/15 04:15:20;;;;;;;33.37;15.73;;;;;;;-1.23;70.42;99857.39;121733;1140;104359;-74
2021/01/15 04:17:49;;;;;;;31.17;14.80;;;;;;;-1.23;71.40;99870.27;121753;1141;104344;-74
2021/01/15 04:20:18;;;;;;;28.87;13.63;;;;;;;-1.21;71.62;99868.72;121683;1141;104375;-74
2021/01/15 04:22:48;;;;;;;26.93;11.30;;;;;;;-1.20;71.20;99881.70;121732;1140;104340;-73
2021/01/15 04:25:17;;;;;;;31.70;15.70;;;;;;;-1.15;71.58;99871.73;121684;1140;104466;-73
2021/01/15 04:27:46;;;;;;;29.17;14.03;;;;;;;-1.14;71.11;99874.42;121689;1140;104507;-74
2021/01/15 04:30:16;;;;;;;32.27;14.23;;;;;;;-1.14;71.66;99882.14;121675;1141;104490;-75
2021/01/15 04:32:47;;;;;;;26.03;12.60;;;;;;;-1.12;70.64;99871.95;121598;1140;104345;-75
2021/01/15 04:35:18;;;;;;;26.53;12.27;;;;;;;-1.11;70.55;99872.06;121602;1141;104365;-74
2021/01/15 04:37:47;;;;;;;26.67;12.23;;;;;;;-1.10;70.86;99881.56;121650;1141;104466;-75
2021/01/15 04:40:17;;;;;;;23.83;11.20;;;;;;;-1.09;70.73;99883.36;121508;1141;104455;-75
2021/01/15 04:42:48;;;;;;;24.00;10.30;;;;;;;-1.09;71.34;99882.48;121582;1140;104378;-74
2021/01/15 04:45:18;;;;;;;25.47;10.67;;;;;;;-1.10;70.68;99884.13;121536;1141;104384;-75
2021/01/15 04:47:48;;;;;;;22.20;9.33;;;;;;;-1.09;70.44;99887.63;121625;1141;104366;-75
2021/01/15 04:50:18;;;;;;;19.33;8.33;;;;;;;-1.11;71.15;99904.63;121657;1141;104377;-74
2021/01/15 04:52:51;;;;;;;20.37;8.37;;;;;;;-1.13;71.03;99901.94;121626;1141;104343;-75
2021/01/15 04:55:23;;;;;;;21.17;8.53;;;;;;;-1.16;70.31;99906.86;121645;1141;104460;-75
2021/01/15 04:57:53;;;;;;;21.33;8.33;;;;;;;-1.20;70.60;99910.02;121705;1140;104368;-74
2021/01/15 05:00:25;;;;;;;23.47;8.73;;;;;;;-1.25;71.21;99915.61;121685;1141;104404;-75
2021/01/15 05:02:55;;;;;;;19.53;7.13;;;;;;;-1.31;71.26;99924.68;121577;1140;104345;-78
2021/01/15 05:05:25;;;;;;;19.27;7.07;;;;;;;-1.34;71.16;99934.75;121705;1141;105334;-77
2021/01/15 05:08:12;;;;;;;19.93;8.07;;;;;;;-1.38;70.46;99934.41;121715;1141;104468;-78
2021/01/15 05:10:43;;;;;;;17.43;6.93;;;;;;;-1.41;70.94;99950.52;121591;1140;104436;-77
2021/01/15 05:13:14;;;;;;;18.03;7.60;;;;;;;-1.41;70.83;99952.20;121659;1141;104374;-75
2021/01/15 05:15:45;;;;;;;15.47;6.10;;;;;;;-1.42;70.26;99970.98;121710;1141;104343;-78
2021/01/15 05:18:16;;;;;;;18.07;6.63;;;;;;;-1.47;70.80;99968.95;121707;1141;104361;-77
2021/01/15 05:20:47;;;;;;;14.57;6.23;;;;;;;-1.50;70.54;99978.13;121678;1141;104471;-76
2021/01/15 05:23:17;;;;;;;18.70;6.83;;;;;;;-1.56;70.63;99970.84;121759;1140;104378;-76
2021/01/15 05:25:48;;;;;;;16.50;6.50;;;;;;;-1.58;70.12;99976.67;121735;1141;104340;-78
2021/01/15 05:28:23;;;;;;;15.17;5.77;;;;;;;-1.61;69.74;99984.16;121612;1141;104829;-77
2021/01/15 05:30:58;;;;;;;15.03;5.77;;;;;;;-1.67;69.72;99984.58;121642;1140;104344;-77
2021/01/15 05:33:27;;;;;;;14.57;6.10;;;;;;;-1.69;69.90;99983.58;122256;1140;104333;-75
2021/01/15 05:35:56;;;;;;;15.30;6.23;;;;;;;-1.70;70.58;99986.92;121564;1141;104473;-76
2021/01/15 05:38:26;;;;;;;15.40;6.43;;;;;;;-1.70;69.71;99990.41;121602;1141;104406;-75
2021/01/15 05:40:56;;;;;;;15.97;7.00;;;;;;;-1.67;69.78;100000.02;121639;1141;104339;-76
2021/01/15 05:43:28;;;;;;;15.43;6.13;;;;;;;-1.67;70.88;99993.22;121620;1141;104343;-75
2021/01/15 05:46:11;;;;;;;14.70;6.00;;;;;;;-1.67;69.63;100000.02;121569;1140;104460;-75
2021/01/15 05:48:45;;;;;;;14.47;5.83;;;;;;;-1.70;70.25;100003.27;121464;1141;104457;-76
2021/01/15 05:51:28;;;;;;;14.30;5.90;;;;;;;-1.71;70.04;100008.30;121533;1141;104307;-77
2021/01/15 05:53:58;;;;;;;12.17;5.30;;;;;;;-1.70;70.58;100004.92;121524;1141;104468;-77
2021/01/15 05:56:47;;;;;;;12.33;5.13;;;;;;;-1.71;70.71;100006.61;121520;1140;104451;-76
2021/01/15 05:59:19;;;;;;;11.00;5.00;;;;;;;-1.72;70.37;100014.21;121682;1141;104508;-76
2021/01/15 06:01:51;;;;;;;16.27;5.37;;;;;;;-1.74;70.13;100013.21;121524;1140;104436;-78
2021/01/15 06:04:34;;;;;;;12.07;5.23;;;;;;;-1.80;69.90;100029.05;121479;1141;104364;-76
2021/01/15 06:07:19;;;;;;;12.57;4.90;;;;;;;-1.82;69.33;100026.37;121474;1141;104462;-77
2021/01/15 06:10:01;;;;;;;11.85;4.95;;;;;;;-1.85;69.58;100035.53;121545;1141;104371;-77
2021/01/15 06:12:42;;;;;;;14.50;5.10;;;;;;;-1.84;69.73;100029.59;121570;1140;104586;-79
2021/01/15 06:15:12;;;;;;;13.77;5.83;;;;;;;-1.82;69.68;100036.66;121432;1141;104455;-79
2021/01/15 06:17:42;;;;;;;16.17;6.33;;;;;;;-1.78;69.71;100042.03;121513;1141;104512;-76
2021/01/15 06:20:19;;;;;;;14.60;5.53;;;;;;;-1.74;70.39;100036.36;121091;1141;104397;-75
2021/01/15 06:22:54;;;;;;;13.37;5.53;;;;;;;-1.77;69.51;100038.70;121257;1141;104391;-77
2021/01/15 06:25:32;;;;;;;14.27;5.33;;;;;;;-1.83;69.55;100039.99;121099;1141;104540;-77
2021/01/15 06:28:03;;;;;;;10.77;3.97;;;;;;;-1.90;69.21;100042.89;121042;1141;104457;-74
2021/01/15 06:30:34;;;;;;;6.30;3.10;;;;;;;-1.98;68.55;100049.09;121117;1141;104519;-75
2021/01/15 06:33:10;;;;;;;8.30;3.80;;;;;;;-2.04;69.73;100053.75;121184;1141;104522;-75
2021/01/15 06:35:42;;;;;;;7.50;3.47;;;;;;;-2.11;68.64;100049.81;121166;1141;104399;-73
2021/01/15 06:38:13;;;;;;;9.10;3.40;;;;;;;-2.15;68.90;100050.37;121282;1141;104442;-75
2021/01/15 06:40:44;;;;;;;7.10;2.93;;;;;;;-2.13;69.17;100053.06;121144;1141;104626;-76
2021/01/15 06:43:25;;;;;;;8.27;3.57;;;;;;;-2.14;69.42;100053.83;121064;1141;104411;-74
2021/01/15 06:46:00;;;;;;;6.17;3.40;;;;;;;-2.15;69.39;100059.73;120956;1141;104513;-76
2021/01/15 06:48:36;;;;;;;10.20;4.10;;;;;;;-2.12;69.05;100063.47;123042;1140;102138;-77
2021/01/15 06:51:07;;;;;;;11.93;4.00;;;;;;;-2.11;69.94;100065.23;123319;1140;103114;-77
2021/01/15 06:53:39;;;;;;;9.63;4.03;;;;;;;-2.11;68.69;100069.49;122174;1139;104382;-75
2021/01/15 06:56:13;;;;;;;10.90;4.00;;;;;;;-2.08;69.24;100072.30;121380;1141;104368;-75
2021/01/15 06:58:43;;;;;;;10.20;3.97;;;;;;;-2.05;69.79;100073.44;121332;1141;104364;-76
2021/01/15 07:01:21;;;;;;;8.93;4.20;;;;;;;-2.02;69.13;100088.22;121381;1140;104589;-76
2021/01/15 07:04:09;;;;;;;11.90;4.40;;;;;;;-2.04;69.20;100087.17;121451;1141;104777;-76
2021/01/15 07:06:53;;;;;;;12.60;3.83;;;;;;;-2.04;69.21;100106.09;122077;1140;104525;-76
2021/01/15 07:09:26;;;;;;;11.60;4.77;;;;;;;-2.04;69.54;100105.17;121317;1140;104397;-76
2021/01/15 07:12:02;;;;;;;10.20;4.30;;;;;;;-2.06;69.39;100117.91;121307;1140;104351;-75
2021/01/15 07:14:47;;;;;;;10.27;4.47;;;;;;;-2.07;69.63;100115.21;121323;1141;104450;-76
2021/01/15 07:17:27;;;;;;;12.20;4.85;;;;;;;-2.03;68.85;100122.41;121331;1141;104544;-75
2021/01/15 07:20:09;;;;;;;11.60;4.53;;;;;;;-2.01;68.64;100129.48;121287;1141;104455;-74
2021/01/15 07:22:53;;;;;;;12.30;4.90;;;;;;;-2.00;68.26;100135.51;121355;1141;104390;-77
2021/01/15 07:25:23;;;;;;;10.70;4.17;;;;;;;-1.97;68.31;100143.47;122619;1140;104359;-77
2021/01/15 07:27:53;;;;;;;11.40;4.57;;;;;;;-1.94;68.28;100143.71;121427;1140;104365;-75
2021/01/15 07:30:26;;;;;;;12.77;4.90;;;;;;;-1.94;67.96;100145.39;121363;1141;104461;-77
2021/01/15 07:32:58;;;;;;;9.55;4.20;;;;;;;-1.93;69.28;100142.95;121388;1140;104377;-75
2021/01/15 07:35:29;;;;;;;13.80;5.33;;;;;;;-1.92;67.72;100143.83;121380;1141;104423;-75
2021/01/15 07:38:09;;;;;;;12.90;4.97;;;;;;;-1.86;69.14;100155.49;121469;1141;104452;-75
2021/01/15 07:40:41;;;;;;;11.97;4.67;;;;;;;-1.84;67.88;100153.97;121394;1141;104384;-78
2021/01/15 07:43:32;;;;;;;13.50;5.07;;;;;;;-1.85;68.15;100149.59;121408;1140;104372;-77
2021/01/15 07:46:17;;;;;;;13.33;5.27;;;;;;;-1.82;68.18;100162.69;121329;1140;104386;-76
2021/01/15 07:49:01;;;;;;;12.10;5.03;;;;;;;-1.71;68.96;100170.37;121243;1141;104441;-77
2021/01/15 07:52:04;;;;;;;13.10;4.63;;;;;;;-1.66;68.90;100174.19;121233;1141;104377;-77
2021/01/15 07:55:05;;;;;;;18.37;5.20;;;;;;;-1.61;68.48;100174.55;121367;1141;104434;-80
2021/01/15 07:57:34;;;;;;;10.63;4.70;;;;;;;-1.57;68.24;100186.86;121368;1141;104378;-75
2021/01/15 08:00:35;;;;;;;14.60;5.37;;;;;;;-1.65;67.82;100176.00;121340;1141;104828;-76
2021/01/15 08:03:11;;;;;;;14.30;4.90;;;;;;;-1.72;67.25;100190.03;121289;1141;104469;-78
2021/01/15 08:05:42;;;;;;;9.07;4.43;;;;;;;-1.75;68.30;100182.06;121276;1141;104423;-78
2021/01/15 08:08:20;;;;;;;12.93;5.00;;;;;;;-1.78;67.26;100192.11;121420;1141;104466;-74
2021/01/15 08:10:52;;;;;;;13.57;5.33;;;;;;;-1.77;67.59;100200.75;121454;1140;104815;-76
2021/01/15 08:13:23;;;;;;;13.87;4.93;;;;;;;-1.79;67.13;100199.70;121005;1141;104382;-78
2021/01/15 08:15:53;;;;;;;19.03;5.40;;;;;;;-1.78;67.28;100201.52;121321;1140;104967;-79
2021/01/15 08:18:26;;;;;;;12.47;4.60;;;;;;;-1.76;67.90;100207.67;122606;1141;102041;-77
2021/01/15 08:20:56;;;;;;;11.97;4.87;;;;;;;-1.73;67.00;100213.06;122073;1140;104369;-78
2021/01/15 08:23:27;;;;;;;13.37;5.30;;;;;;;-1.69;67.17;100222.83;121248;1140;104513;-82
2021/01/15 08:26:16;;;;;;;15.03;5.07;;;;;;;-1.67;67.94;100221.27;121325;1141;104450;-75
2021/01/15 08:28:50;;;;;;;17.47;5.53;;;;;;;-1.67;67.54;100224.77;121543;1140;104398;-79
2021/01/15 08:31:23;;;;;;;9.90;4.67;;;;;;;-1.62;66.09;100219.98;121255;1141;104407;-77
2021/01/15 08:34:09;;;;;;;13.00;4.83;;;;;;;-1.62;67.11;100225.12;123311;1140;102154;-76
2021/01/15 08:36:38;;;;;;;;;;;;;;;-1.63;67.62;100225.89;122017;1139;104355;-79
2021/01/15 08:39:19;;;;;;;14.33;5.33;;;;;;;-1.57;67.24;100233.18;121415;1141;104370;-77
2021/01/15 08:41:56;;;;;;;13.23;5.10;;;;;;;-1.50;67.55;100223.50;121588;1141;105019;-76
2021/01/15 08:44:34;;;;;;;16.07;6.03;;;;;;;-1.38;67.64;100225.27;121948;1140;104338;-76
2021/01/15 08:47:05;;;;;;;14.13;5.50;;;;;;;-1.31;67.48;100228.44;121458;1140;104332;-77
2021/01/15 08:49:34;;;;;;;14.30;5.47;;;;;;;-1.32;66.95;100226.63;121435;1141;104367;-77
2021/01/15 08:52:05;;;;;;;13.90;5.40;;;;;;;-1.27;67.44;100215.00;121192;1141;104467;-80
2021/01/15 08:54:39;;;;;;;17.40;5.67;;;;;;;-1.35;66.34;100226.39;121277;1141;104428;-76
2021/01/15 08:57:09;;;;;;;15.72;5.78;;;;;;;-1.36;66.73;100228.84;121293;1140;104343;-75
2021/01/15 08:59:39;;;;;;;16.30;6.10;;;;;;;-1.32;66.94;100230.89;121357;1141;104793;-81
2021/01/15 09:02:12;;;;;;;;;;;;;;;-1.27;66.80;100221.84;121435;1141;104473;-75
2021/01/15 09:04:45;;;;;;;18.43;5.87;;;;;;;-1.21;67.19;100224.90;121228;1140;104923;-79
2021/01/15 09:07:17;;;;;;;17.37;5.67;;;;;;;-1.10;65.96;100231.77;121285;1141;104351;-78
2021/01/15 09:09:50;;;;;;;13.50;4.60;;;;;;;-1.10;66.40;100231.77;121256;1140;104467;-76
2021/01/15 09:12:25;;;;;;;13.13;5.07;;;;;;;-1.11;65.98;100235.15;121251;1141;104335;-79
2021/01/15 09:14:55;;;;;;;14.90;4.90;;;;;;;-1.10;65.25;100236.92;120983;1141;105063;-78
2021/01/15 09:17:28;;;;;;;13.90;4.63;;;;;;;-1.11;65.02;100237.72;122451;1139;103297;-76
2021/01/15 09:19:59;;;;;;;10.13;4.23;;;;;;;-1.11;65.33;100248.02;121271;1141;104358;-75
2021/01/15 09:22:30;;;;;;;13.13;4.93;;;;;;;-1.14;66.17;100237.48;121220;1141;104442;-76
2021/01/15 09:25:04;;;;;;;13.30;4.70;;;;;;;-1.06;65.71;100244.88;121254;1140;104461;-76
2021/01/15 09:27:32;;;;;;;;;;;;;;;-0.93;65.84;100243.38;121281;1140;104454;-79
2021/01/15 09:30:01;;;;;;;9.63;4.23;;;;;;;-0.79;65.29;100248.70;121209;1141;104439;-77
2021/01/15 09:32:31;;;;;;;13.23;4.70;;;;;;;-0.80;64.82;100258.09;121181;1141;104455;-75
2021/01/15 09:35:01;;;;;;;15.30;5.83;;;;;;;-0.81;65.72;100246.02;121230;1141;104402;-76
2021/01/15 09:37:30;;;;;;;16.47;6.17;;;;;;;-0.75;66.32;100243.91;121310;1141;104395;-77
2021/01/15 09:40:00;;;;;;;14.43;5.63;;;;;;;-0.73;65.75;100244.02;121377;1140;104509;-74
2021/01/15 09:42:29;;;;;;;17.27;5.53;;;;;;;-0.65;65.98;100248.08;121403;1141;104487;-76
2021/01/15 09:44:59;;;;;;;17.17;5.80;;;;;;;-0.59;64.79;100250.23;121515;1140;104466;-74
2021/01/15 09:47:32;;;;;;;15.50;5.40;;;;;;;-0.58;64.94;100249.42;121460;1141;104453;-77
2021/01/15 09:50:02;;;;;;;13.77;4.63;;;;;;;-0.59;64.88;100253.70;121314;1141;104346;-75
2021/01/15 09:52:32;;;;;;;15.87;5.77;;;;;;;-0.65;64.51;100254.92;122544;1139;104454;-75
2021/01/15 09:55:01;;;;;;;13.30;5.63;;;;;;;-0.66;64.85;100251.42;121449;1141;104457;-75
2021/01/15 09:57:31;;;;;;;15.00;5.30;;;;;;;-0.72;64.59;100253.53;121500;1141;104406;-78
2021/01/15 10:00:01;;;;;;;17.17;5.70;;;;;;;-0.75;64.21;100254.21;121472;1140;104352;-75
2021/01/15 10:02:30;;;;;;;11.40;4.60;;;;;;;-0.75;64.17;100259.37;121564;1141;104457;-77
2021/01/15 10:05:01;;;;;;;17.87;6.10;;;;;;;-0.81;64.49;100258.89;121431;1139;104485;-75
2021/01/15 10:07:31;;;;;;;11.73;4.73;;;;;;;-0.87;65.49;100257.50;121398;1140;104370;-75
2021/01/15 10:10:01;;;;;;;15.43;5.60;;;;;;;-0.88;64.48;100263.45;121473;1139;104404;-79
2021/01/15 10:12:30;;;;;;;14.87;5.80;;;;;;;-0.89;65.23;100272.84;121260;1140;104364;-78
2021/01/15 10:15:00;;;;;;;17.60;6.00;;;;;;;-0.93;65.07;100275.98;121213;1141;104335;-77
2021/01/15 10:17:30;;;;;;;13.67;5.23;;;;;;;-0.95;65.31;100283.59;121350;1141;104366;-77
2021/01/15 10:20:00;;;;;;;13.35;5.50;;;;;;;-0.98;64.68;100273.05;121267;1141;104506;-80
2021/01/15 10:22:32;;;;;;;15.13;5.73;;;;;;;-0.94;65.06;100274.17;120973;1141;104447;-77
2021/01/15 10:25:23;;;;;;;16.53;5.20;;;;;;;-0.94;64.34;100271.59;121080;1143;104487;-77
2021/01/15 10:27:56;;;;;;;12.43;5.30;;;;;;;-0.85;64.93;100262.00;120911;1144;104447;-80
2021/01/15 10:30:30;;;;;;;10.08;4.20;;;;;;;-0.76;64.54;100267.87;120929;1144;104545;-80
2021/01/15 10:33:01;;;;;;;15.65;5.97;;;;;;;-0.67;64.99;100253.87;122342;1150;102408;-77
2021/01/15 10:35:31;;;;;;;15.70;5.27;;;;;;;-0.49;64.88;100250.13;121797;1142;104413;-79
2021/01/15 10:38:01;;;;;;;12.07;4.63;;;;;;;-0.26;64.71;100245.81;121285;1143;104374;-76
2021/01/15 10:40:30;;;;;;;11.47;5.40;;;;;;;-0.13;64.70;100251.08;121029;1143;104517;-77
2021/01/15 10:42:59;;;;;;;13.40;5.40;;;;;;;-0.10;64.70;100238.41;120969;1144;104556;-79
2021/01/15 10:45:29;;;;;;;12.30;4.90;;;;;;;-0.16;63.67;100237.06;121004;1144;104434;-77
2021/01/15 10:47:58;;;;;;;14.90;5.20;;;;;;;-0.23;63.98;100231.45;121112;1144;104898;-77
2021/01/15 10:50:28;;;;;;;14.40;5.87;;;;;;;-0.23;64.01;100236.61;120985;1141;104655;-77
2021/01/15 10:52:57;;;;;;;12.17;4.63;;;;;;;-0.24;64.10;100242.55;121072;1144;104481;-75
2021/01/15 10:55:29;;;;;;;16.53;6.03;;;;;;;-0.23;63.95;100230.56;121235;1141;104367;-76
2021/01/15 10:57:59;;;;;;;15.70;5.20;;;;;;;-0.15;64.23;100232.02;121393;1140;104476;-75
2021/01/15 11:00:35;;;;;;;14.60;5.83;;;;;;;-0.12;64.28;100233.94;121271;1140;104349;-75
2021/01/15 11:03:05;;;;;;;15.30;5.80;;;;;;;-0.06;63.98;100224.08;121236;1141;104380;-75
2021/01/15 11:05:34;;;;;;;15.57;5.70;;;;;;;0.02;62.95;100227.19;121193;1140;104380;-75
2021/01/15 11:08:04;;;;;;;16.07;5.93;;;;;;;-0.03;63.25;100213.98;121114;1141;104509;-75
2021/01/15 11:10:33;;;;;;;12.17;5.07;;;;;;;-0.11;63.26;100216.00;121064;1141;104393;-78
2021/01/15 11:13:02;;;;;;;14.50;5.80;;;;;;;-0.20;63.29;100210.16;121155;1141;104489;-77
2021/01/15 11:15:32;;;;;;;14.23;5.40;;;;;;;-0.22;63.93;100215.20;121235;1141;104384;-78
2021/01/15 11:18:01;;;;;;;13.70;5.67;;;;;;;-0.27;63.85;100223.37;121220;1141;104359;-79
2021/01/15 11:20:33;;;;;;;14.17;5.50;;;;;;;-0.39;63.08;100219.11;121119;1141;104487;-76
2021/01/15 11:23:16;;;;;;;17.83;6.63;;;;;;;-0.46;63.04;100227.16;122560;1148;102185;-75
2021/01/15 11:25:45;;;;;;;11.30;4.90;;;;;;;-0.55;64.17;100223.88;122644;1140;102132;-78
2021/01/15 11:28:15;;;;;;;15.40;6.03;;;;;;;-0.60;63.68;100233.84;122622;1141;102147;-76
2021/01/15 11:30:44;;;;;;;16.50;6.30;;;;;;;-0.62;63.86;100225.11;122177;1139;104336;-79